sensor_id;sensor_type;location;lat;lon;timestamp;P1;durP1;ratioP1;P2;durP2;ratioP2
11086;SDS011;5597;47.588;9.642;2024-02-16T00:00:17;8.40;;;6.73;;
11086;SDS011;5597;47.588;9.642;2024-02-16T00:02:43;7.50;;;6.70;;
11086;SDS011;5597;47.588;9.642;2024-02-16T00:05:09;8.03;;;7.23;;
11086;SDS011;5597;47.588;9.642;2024-02-16T00:07:36;7.87;;;7.00;;
11086;SDS011;5597;47.588;9.642;2024-02-16T00:10:06;8.67;;;6.93;;
11086;SDS011;5597;47.588;9.642;2024-02-16T00:12:33;7.97;;;6.53;;
11086;SDS011;5597;47.588;9.642;2024-02-16T00:14:59;7.53;;;6.37;;
11086;SDS011;5597;47.588;9.642;2024-02-16T00:17:25;8.80;;;6.67;;
11086;SDS011;5597;47.588;9.642;2024-02-16T00:19:54;8.83;;;6.93;;
11086;SDS011;5597;47.588;9.642;2024-02-16T00:22:23;8.10;;;7.20;;
11086;SDS011;5597;47.588;9.642;2024-02-16T00:24:49;9.93;;;7.57;;
11086;SDS011;5597;47.588;9.642;2024-02-16T00:27:15;8.20;;;6.80;;
11086;SDS011;5597;47.588;9.642;2024-02-16T00:29:41;8.43;;;6.70;;
11086;SDS011;5597;47.588;9.642;2024-02-16T00:32:07;9.03;;;7.33;;
11086;SDS011;5597;47.588;9.642;2024-02-16T00:34:36;8.50;;;6.50;;
11086;SDS011;5597;47.588;9.642;2024-02-16T00:37:02;8.83;;;7.33;;
11086;SDS011;5597;47.588;9.642;2024-02-16T00:39:35;7.73;;;6.47;;
11086;SDS011;5597;47.588;9.642;2024-02-16T00:42:01;8.63;;;7.20;;
11086;SDS011;5597;47.588;9.642;2024-02-16T00:44:27;7.20;;;6.30;;
11086;SDS011;5597;47.588;9.642;2024-02-16T00:46:52;7.20;;;6.13;;
11086;SDS011;5597;47.588;9.642;2024-02-16T00:49:18;7.03;;;6.33;;
11086;SDS011;5597;47.588;9.642;2024-02-16T00:51:44;7.80;;;6.67;;
11086;SDS011;5597;47.588;9.642;2024-02-16T00:54:10;8.97;;;6.60;;
11086;SDS011;5597;47.588;9.642;2024-02-16T00:56:35;9.30;;;6.80;;
11086;SDS011;5597;47.588;9.642;2024-02-16T00:59:01;8.27;;;6.80;;
11086;SDS011;5597;47.588;9.642;2024-02-16T01:01:27;6.83;;;5.83;;
11086;SDS011;5597;47.588;9.642;2024-02-16T01:03:53;6.93;;;5.87;;
11086;SDS011;5597;47.588;9.642;2024-02-16T01:06:19;6.77;;;5.73;;
11086;SDS011;5597;47.588;9.642;2024-02-16T01:08:45;7.00;;;5.70;;
11086;SDS011;5597;47.588;9.642;2024-02-16T01:11:14;7.77;;;6.33;;
11086;SDS011;5597;47.588;9.642;2024-02-16T01:13:40;9.33;;;6.70;;
11086;SDS011;5597;47.588;9.642;2024-02-16T01:16:05;7.60;;;6.20;;
11086;SDS011;5597;47.588;9.642;2024-02-16T01:18:32;8.80;;;7.20;;
11086;SDS011;5597;47.588;9.642;2024-02-16T01:21:01;7.40;;;6.67;;
11086;SDS011;5597;47.588;9.642;2024-02-16T01:23:28;10.80;;;7.60;;
11086;SDS011;5597;47.588;9.642;2024-02-16T01:25:54;6.57;;;5.87;;
11086;SDS011;5597;47.588;9.642;2024-02-16T01:28:20;6.90;;;6.20;;
11086;SDS011;5597;47.588;9.642;2024-02-16T01:30:45;7.70;;;5.93;;
11086;SDS011;5597;47.588;9.642;2024-02-16T01:33:11;6.83;;;5.80;;
11086;SDS011;5597;47.588;9.642;2024-02-16T01:35:36;7.27;;;6.10;;
11086;SDS011;5597;47.588;9.642;2024-02-16T01:38:02;7.17;;;6.47;;
11086;SDS011;5597;47.588;9.642;2024-02-16T01:40:28;8.03;;;6.43;;
11086;SDS011;5597;47.588;9.642;2024-02-16T01:42:54;7.67;;;6.27;;
11086;SDS011;5597;47.588;9.642;2024-02-16T01:45:20;7.33;;;6.03;;
11086;SDS011;5597;47.588;9.642;2024-02-16T01:47:46;7.40;;;6.03;;
11086;SDS011;5597;47.588;9.642;2024-02-16T01:50:15;6.73;;;6.03;;
11086;SDS011;5597;47.588;9.642;2024-02-16T01:52:42;7.17;;;5.80;;
11086;SDS011;5597;47.588;9.642;2024-02-16T01:55:11;6.47;;;5.50;;
11086;SDS011;5597;47.588;9.642;2024-02-16T01:57:47;6.60;;;5.90;;
11086;SDS011;5597;47.588;9.642;2024-02-16T02:00:14;5.97;;;5.17;;
11086;SDS011;5597;47.588;9.642;2024-02-16T02:02:44;6.47;;;5.80;;
11086;SDS011;5597;47.588;9.642;2024-02-16T02:05:11;7.97;;;6.70;;
11086;SDS011;5597;47.588;9.642;2024-02-16T02:07:37;7.50;;;5.90;;
11086;SDS011;5597;47.588;9.642;2024-02-16T02:10:03;8.90;;;6.37;;
11086;SDS011;5597;47.588;9.642;2024-02-16T02:12:29;6.80;;;6.00;;
11086;SDS011;5597;47.588;9.642;2024-02-16T02:14:55;7.10;;;5.90;;
11086;SDS011;5597;47.588;9.642;2024-02-16T02:17:20;7.53;;;6.47;;
11086;SDS011;5597;47.588;9.642;2024-02-16T02:19:46;6.60;;;5.60;;
11086;SDS011;5597;47.588;9.642;2024-02-16T02:22:13;7.67;;;6.73;;
11086;SDS011;5597;47.588;9.642;2024-02-16T02:24:43;7.90;;;6.27;;
11086;SDS011;5597;47.588;9.642;2024-02-16T02:27:09;8.03;;;7.17;;
11086;SDS011;5597;47.588;9.642;2024-02-16T02:29:35;7.17;;;6.47;;
11086;SDS011;5597;47.588;9.642;2024-02-16T02:32:01;7.20;;;6.20;;
11086;SDS011;5597;47.588;9.642;2024-02-16T02:34:26;6.50;;;5.80;;
11086;SDS011;5597;47.588;9.642;2024-02-16T02:36:52;6.60;;;5.87;;
11086;SDS011;5597;47.588;9.642;2024-02-16T02:39:18;6.53;;;5.63;;
11086;SDS011;5597;47.588;9.642;2024-02-16T02:41:43;7.33;;;6.00;;
11086;SDS011;5597;47.588;9.642;2024-02-16T02:44:09;6.70;;;5.83;;
11086;SDS011;5597;47.588;9.642;2024-02-16T02:46:36;6.07;;;5.40;;
11086;SDS011;5597;47.588;9.642;2024-02-16T02:49:02;7.37;;;6.10;;
11086;SDS011;5597;47.588;9.642;2024-02-16T02:51:28;7.70;;;6.37;;
11086;SDS011;5597;47.588;9.642;2024-02-16T02:53:54;7.53;;;6.10;;
11086;SDS011;5597;47.588;9.642;2024-02-16T02:56:20;6.13;;;5.50;;
11086;SDS011;5597;47.588;9.642;2024-02-16T02:58:45;7.10;;;5.80;;
11086;SDS011;5597;47.588;9.642;2024-02-16T03:01:11;7.60;;;6.10;;
11086;SDS011;5597;47.588;9.642;2024-02-16T03:03:37;6.43;;;5.43;;
11086;SDS011;5597;47.588;9.642;2024-02-16T03:06:04;6.10;;;5.37;;
11086;SDS011;5597;47.588;9.642;2024-02-16T03:08:31;6.97;;;5.37;;
11086;SDS011;5597;47.588;9.642;2024-02-16T03:10:56;7.67;;;5.97;;
11086;SDS011;5597;47.588;9.642;2024-02-16T03:13:25;6.90;;;6.13;;
11086;SDS011;5597;47.588;9.642;2024-02-16T03:15:51;5.93;;;5.33;;
11086;SDS011;5597;47.588;9.642;2024-02-16T03:18:17;5.83;;;5.20;;
11086;SDS011;5597;47.588;9.642;2024-02-16T03:20:44;6.30;;;5.17;;
11086;SDS011;5597;47.588;9.642;2024-02-16T03:23:12;5.80;;;5.00;;
11086;SDS011;5597;47.588;9.642;2024-02-16T03:25:38;6.50;;;5.40;;
11086;SDS011;5597;47.588;9.642;2024-02-16T03:28:04;5.73;;;5.07;;
11086;SDS011;5597;47.588;9.642;2024-02-16T03:30:30;6.03;;;5.40;;
11086;SDS011;5597;47.588;9.642;2024-02-16T03:32:56;6.27;;;5.37;;
11086;SDS011;5597;47.588;9.642;2024-02-16T03:35:22;6.70;;;5.53;;
11086;SDS011;5597;47.588;9.642;2024-02-16T03:37:47;5.23;;;4.67;;
11086;SDS011;5597;47.588;9.642;2024-02-16T03:40:13;6.00;;;5.40;;
11086;SDS011;5597;47.588;9.642;2024-02-16T03:42:39;5.87;;;5.27;;
11086;SDS011;5597;47.588;9.642;2024-02-16T03:45:06;5.43;;;4.80;;
11086;SDS011;5597;47.588;9.642;2024-02-16T03:47:32;5.40;;;4.87;;
11086;SDS011;5597;47.588;9.642;2024-02-16T03:49:58;5.27;;;4.77;;
11086;SDS011;5597;47.588;9.642;2024-02-16T03:52:23;6.50;;;5.10;;
11086;SDS011;5597;47.588;9.642;2024-02-16T03:54:49;6.87;;;5.50;;
11086;SDS011;5597;47.588;9.642;2024-02-16T03:57:16;7.73;;;5.93;;
11086;SDS011;5597;47.588;9.642;2024-02-16T03:59:42;6.90;;;5.67;;
11086;SDS011;5597;47.588;9.642;2024-02-16T04:02:13;7.17;;;5.80;;
11086;SDS011;5597;47.588;9.642;2024-02-16T04:04:39;5.80;;;5.20;;
11086;SDS011;5597;47.588;9.642;2024-02-16T04:07:05;6.87;;;5.50;;
11086;SDS011;5597;47.588;9.642;2024-02-16T04:09:33;6.47;;;5.40;;
11086;SDS011;5597;47.588;9.642;2024-02-16T04:11:59;5.30;;;4.77;;
11086;SDS011;5597;47.588;9.642;2024-02-16T04:14:26;5.17;;;4.67;;
11086;SDS011;5597;47.588;9.642;2024-02-16T04:16:51;5.17;;;4.67;;
11086;SDS011;5597;47.588;9.642;2024-02-16T04:19:17;6.80;;;5.17;;
11086;SDS011;5597;47.588;9.642;2024-02-16T04:21:43;6.00;;;5.40;;
11086;SDS011;5597;47.588;9.642;2024-02-16T04:24:09;7.50;;;5.70;;
11086;SDS011;5597;47.588;9.642;2024-02-16T04:26:34;5.67;;;5.10;;
11086;SDS011;5597;47.588;9.642;2024-02-16T04:29:00;5.60;;;5.10;;
11086;SDS011;5597;47.588;9.642;2024-02-16T04:31:26;6.53;;;5.13;;
11086;SDS011;5597;47.588;9.642;2024-02-16T04:33:51;6.43;;;5.50;;
11086;SDS011;5597;47.588;9.642;2024-02-16T04:36:18;5.87;;;5.00;;
11086;SDS011;5597;47.588;9.642;2024-02-16T04:38:44;6.40;;;5.70;;
11086;SDS011;5597;47.588;9.642;2024-02-16T04:41:09;5.23;;;4.73;;
11086;SDS011;5597;47.588;9.642;2024-02-16T04:43:35;5.90;;;5.30;;
11086;SDS011;5597;47.588;9.642;2024-02-16T04:46:01;6.03;;;5.40;;
11086;SDS011;5597;47.588;9.642;2024-02-16T04:48:27;5.80;;;5.20;;
11086;SDS011;5597;47.588;9.642;2024-02-16T04:50:54;5.70;;;5.13;;
11086;SDS011;5597;47.588;9.642;2024-02-16T04:53:19;6.20;;;5.40;;
11086;SDS011;5597;47.588;9.642;2024-02-16T04:55:45;6.20;;;5.37;;
11086;SDS011;5597;47.588;9.642;2024-02-16T04:58:10;6.47;;;5.77;;
11086;SDS011;5597;47.588;9.642;2024-02-16T05:00:37;6.10;;;5.50;;
11086;SDS011;5597;47.588;9.642;2024-02-16T05:03:03;5.90;;;5.30;;
11086;SDS011;5597;47.588;9.642;2024-02-16T05:05:29;6.60;;;5.70;;
11086;SDS011;5597;47.588;9.642;2024-02-16T05:07:55;5.90;;;5.30;;
11086;SDS011;5597;47.588;9.642;2024-02-16T05:10:21;5.40;;;4.90;;
11086;SDS011;5597;47.588;9.642;2024-02-16T05:12:47;6.57;;;5.47;;
11086;SDS011;5597;47.588;9.642;2024-02-16T05:15:12;7.13;;;5.87;;
11086;SDS011;5597;47.588;9.642;2024-02-16T05:17:38;6.63;;;5.83;;
11086;SDS011;5597;47.588;9.642;2024-02-16T05:20:09;6.40;;;5.70;;
11086;SDS011;5597;47.588;9.642;2024-02-16T05:22:40;8.27;;;5.80;;
11086;SDS011;5597;47.588;9.642;2024-02-16T05:25:16;7.17;;;5.30;;
11086;SDS011;5597;47.588;9.642;2024-02-16T05:27:45;7.07;;;5.17;;
11086;SDS011;5597;47.588;9.642;2024-02-16T05:30:12;7.53;;;6.40;;
11086;SDS011;5597;47.588;9.642;2024-02-16T05:32:40;6.87;;;5.43;;
11086;SDS011;5597;47.588;9.642;2024-02-16T05:35:07;6.03;;;5.40;;
11086;SDS011;5597;47.588;9.642;2024-02-16T05:37:48;5.13;;;4.60;;
11086;SDS011;5597;47.588;9.642;2024-02-16T05:40:16;7.23;;;5.27;;
11086;SDS011;5597;47.588;9.642;2024-02-16T05:42:53;5.23;;;4.67;;
11086;SDS011;5597;47.588;9.642;2024-02-16T05:45:22;5.90;;;5.13;;
11086;SDS011;5597;47.588;9.642;2024-02-16T05:47:48;6.07;;;5.03;;
11086;SDS011;5597;47.588;9.642;2024-02-16T05:50:14;8.43;;;5.83;;
11086;SDS011;5597;47.588;9.642;2024-02-16T05:52:40;6.03;;;5.40;;
11086;SDS011;5597;47.588;9.642;2024-02-16T05:55:07;6.43;;;5.33;;
11086;SDS011;5597;47.588;9.642;2024-02-16T05:57:34;5.93;;;5.10;;
11086;SDS011;5597;47.588;9.642;2024-02-16T06:00:00;6.00;;;5.23;;
11086;SDS011;5597;47.588;9.642;2024-02-16T06:02:27;5.30;;;4.77;;
11086;SDS011;5597;47.588;9.642;2024-02-16T06:04:53;5.90;;;5.30;;
11086;SDS011;5597;47.588;9.642;2024-02-16T06:07:19;6.10;;;5.10;;
11086;SDS011;5597;47.588;9.642;2024-02-16T06:09:44;7.20;;;5.53;;
11086;SDS011;5597;47.588;9.642;2024-02-16T06:12:10;6.40;;;5.37;;
11086;SDS011;5597;47.588;9.642;2024-02-16T06:14:37;8.03;;;6.63;;
11086;SDS011;5597;47.588;9.642;2024-02-16T06:17:03;7.37;;;5.93;;
11086;SDS011;5597;47.588;9.642;2024-02-16T06:19:29;7.37;;;6.10;;
11086;SDS011;5597;47.588;9.642;2024-02-16T06:21:55;9.97;;;7.70;;
11086;SDS011;5597;47.588;9.642;2024-02-16T06:24:22;9.00;;;7.30;;
11086;SDS011;5597;47.588;9.642;2024-02-16T06:26:48;7.20;;;5.83;;
11086;SDS011;5597;47.588;9.642;2024-02-16T06:29:15;9.30;;;6.43;;
11086;SDS011;5597;47.588;9.642;2024-02-16T06:31:40;7.67;;;6.10;;
11086;SDS011;5597;47.588;9.642;2024-02-16T06:34:06;7.50;;;6.80;;
11086;SDS011;5597;47.588;9.642;2024-02-16T06:36:33;8.13;;;6.87;;
11086;SDS011;5597;47.588;9.642;2024-02-16T06:38:59;8.43;;;7.00;;
11086;SDS011;5597;47.588;9.642;2024-02-16T06:41:25;6.93;;;5.80;;
11086;SDS011;5597;47.588;9.642;2024-02-16T06:43:50;9.70;;;6.93;;
11086;SDS011;5597;47.588;9.642;2024-02-16T06:46:16;8.23;;;7.17;;
11086;SDS011;5597;47.588;9.642;2024-02-16T06:48:42;8.40;;;7.47;;
11086;SDS011;5597;47.588;9.642;2024-02-16T06:51:07;8.07;;;6.00;;
11086;SDS011;5597;47.588;9.642;2024-02-16T06:53:33;7.60;;;6.40;;
11086;SDS011;5597;47.588;9.642;2024-02-16T06:55:59;7.77;;;6.33;;
11086;SDS011;5597;47.588;9.642;2024-02-16T06:58:24;7.43;;;5.63;;
11086;SDS011;5597;47.588;9.642;2024-02-16T07:00:50;7.30;;;6.30;;
11086;SDS011;5597;47.588;9.642;2024-02-16T07:03:16;8.33;;;6.03;;
11086;SDS011;5597;47.588;9.642;2024-02-16T07:05:43;7.57;;;6.60;;
11086;SDS011;5597;47.588;9.642;2024-02-16T07:08:08;7.17;;;6.27;;
11086;SDS011;5597;47.588;9.642;2024-02-16T07:10:34;8.00;;;6.67;;
11086;SDS011;5597;47.588;9.642;2024-02-16T07:13:00;7.97;;;5.90;;
11086;SDS011;5597;47.588;9.642;2024-02-16T07:15:26;10.27;;;7.07;;
11086;SDS011;5597;47.588;9.642;2024-02-16T07:17:52;7.43;;;6.10;;
11086;SDS011;5597;47.588;9.642;2024-02-16T07:20:18;8.60;;;6.87;;
11086;SDS011;5597;47.588;9.642;2024-02-16T07:22:44;8.77;;;6.53;;
11086;SDS011;5597;47.588;9.642;2024-02-16T07:25:11;8.23;;;6.13;;
11086;SDS011;5597;47.588;9.642;2024-02-16T07:27:37;6.63;;;5.97;;
11086;SDS011;5597;47.588;9.642;2024-02-16T07:30:04;7.43;;;6.30;;
11086;SDS011;5597;47.588;9.642;2024-02-16T07:32:30;7.20;;;6.13;;
11086;SDS011;5597;47.588;9.642;2024-02-16T07:34:55;8.33;;;5.67;;
11086;SDS011;5597;47.588;9.642;2024-02-16T07:37:21;6.80;;;5.60;;
11086;SDS011;5597;47.588;9.642;2024-02-16T07:39:47;8.37;;;5.80;;
11086;SDS011;5597;47.588;9.642;2024-02-16T07:42:12;7.00;;;5.63;;
11086;SDS011;5597;47.588;9.642;2024-02-16T07:44:38;7.27;;;6.23;;
11086;SDS011;5597;47.588;9.642;2024-02-16T07:47:04;7.33;;;5.87;;
11086;SDS011;5597;47.588;9.642;2024-02-16T07:49:30;9.17;;;5.50;;
11086;SDS011;5597;47.588;9.642;2024-02-16T07:51:56;6.77;;;5.70;;
11086;SDS011;5597;47.588;9.642;2024-02-16T07:54:22;6.27;;;5.60;;
11086;SDS011;5597;47.588;9.642;2024-02-16T07:56:48;8.07;;;5.87;;
11086;SDS011;5597;47.588;9.642;2024-02-16T07:59:14;7.77;;;6.00;;
11086;SDS011;5597;47.588;9.642;2024-02-16T08:01:39;6.70;;;5.67;;
11086;SDS011;5597;47.588;9.642;2024-02-16T08:04:05;8.33;;;6.30;;
11086;SDS011;5597;47.588;9.642;2024-02-16T08:06:31;6.60;;;5.90;;
11086;SDS011;5597;47.588;9.642;2024-02-16T08:08:56;6.77;;;5.70;;
11086;SDS011;5597;47.588;9.642;2024-02-16T08:11:22;7.30;;;5.90;;
11086;SDS011;5597;47.588;9.642;2024-02-16T08:13:48;6.97;;;6.10;;
11086;SDS011;5597;47.588;9.642;2024-02-16T08:16:13;7.53;;;5.87;;
11086;SDS011;5597;47.588;9.642;2024-02-16T08:18:39;6.70;;;6.00;;
11086;SDS011;5597;47.588;9.642;2024-02-16T08:21:05;6.97;;;6.00;;
11086;SDS011;5597;47.588;9.642;2024-02-16T08:23:30;7.03;;;5.43;;
11086;SDS011;5597;47.588;9.642;2024-02-16T08:25:56;7.33;;;5.47;;
11086;SDS011;5597;47.588;9.642;2024-02-16T08:28:22;6.70;;;5.40;;
11086;SDS011;5597;47.588;9.642;2024-02-16T08:30:48;6.50;;;5.20;;
11086;SDS011;5597;47.588;9.642;2024-02-16T08:33:14;6.23;;;4.87;;
11086;SDS011;5597;47.588;9.642;2024-02-16T08:35:40;5.47;;;4.67;;
11086;SDS011;5597;47.588;9.642;2024-02-16T08:38:06;5.67;;;4.93;;
11086;SDS011;5597;47.588;9.642;2024-02-16T08:40:36;6.13;;;4.80;;
11086;SDS011;5597;47.588;9.642;2024-02-16T08:43:02;5.43;;;4.70;;
11086;SDS011;5597;47.588;9.642;2024-02-16T08:45:30;5.20;;;4.50;;
11086;SDS011;5597;47.588;9.642;2024-02-16T08:47:55;5.80;;;4.60;;
11086;SDS011;5597;47.588;9.642;2024-02-16T08:50:22;4.67;;;4.17;;
11086;SDS011;5597;47.588;9.642;2024-02-16T08:52:49;6.27;;;4.50;;
11086;SDS011;5597;47.588;9.642;2024-02-16T08:55:15;4.97;;;4.40;;
11086;SDS011;5597;47.588;9.642;2024-02-16T08:57:41;4.63;;;3.77;;
11086;SDS011;5597;47.588;9.642;2024-02-16T09:00:07;4.00;;;3.60;;
11086;SDS011;5597;47.588;9.642;2024-02-16T09:02:33;4.30;;;3.30;;
11086;SDS011;5597;47.588;9.642;2024-02-16T09:04:58;3.87;;;3.27;;
11086;SDS011;5597;47.588;9.642;2024-02-16T09:07:24;4.53;;;3.00;;
11086;SDS011;5597;47.588;9.642;2024-02-16T09:09:51;3.23;;;2.90;;
11086;SDS011;5597;47.588;9.642;2024-02-16T09:12:17;3.13;;;2.80;;
11086;SDS011;5597;47.588;9.642;2024-02-16T09:14:42;4.27;;;3.20;;
11086;SDS011;5597;47.588;9.642;2024-02-16T09:17:08;3.40;;;3.10;;
11086;SDS011;5597;47.588;9.642;2024-02-16T09:19:33;4.30;;;3.80;;
11086;SDS011;5597;47.588;9.642;2024-02-16T09:21:59;4.50;;;3.60;;
11086;SDS011;5597;47.588;9.642;2024-02-16T09:24:27;4.93;;;3.97;;
11086;SDS011;5597;47.588;9.642;2024-02-16T09:26:54;4.30;;;3.87;;
11086;SDS011;5597;47.588;9.642;2024-02-16T09:29:20;4.93;;;4.30;;
11086;SDS011;5597;47.588;9.642;2024-02-16T09:31:48;5.53;;;4.00;;
11086;SDS011;5597;47.588;9.642;2024-02-16T09:34:15;5.50;;;4.50;;
11086;SDS011;5597;47.588;9.642;2024-02-16T09:36:40;6.07;;;4.40;;
11086;SDS011;5597;47.588;9.642;2024-02-16T09:39:08;4.67;;;4.27;;
11086;SDS011;5597;47.588;9.642;2024-02-16T09:41:34;4.93;;;4.47;;
11086;SDS011;5597;47.588;9.642;2024-02-16T09:44:03;5.73;;;4.13;;
11086;SDS011;5597;47.588;9.642;2024-02-16T09:46:29;6.00;;;4.40;;
11086;SDS011;5597;47.588;9.642;2024-02-16T09:48:58;5.33;;;4.80;;
11086;SDS011;5597;47.588;9.642;2024-02-16T09:51:27;6.17;;;4.97;;
11086;SDS011;5597;47.588;9.642;2024-02-16T09:53:56;5.23;;;4.73;;
11086;SDS011;5597;47.588;9.642;2024-02-16T09:56:22;5.53;;;4.93;;
11086;SDS011;5597;47.588;9.642;2024-02-16T09:58:50;6.37;;;5.07;;
11086;SDS011;5597;47.588;9.642;2024-02-16T10:01:20;5.97;;;4.97;;
11086;SDS011;5597;47.588;9.642;2024-02-16T10:03:48;6.53;;;4.97;;
11086;SDS011;5597;47.588;9.642;2024-02-16T10:06:14;6.03;;;4.90;;
11086;SDS011;5597;47.588;9.642;2024-02-16T10:08:47;6.27;;;4.90;;
11086;SDS011;5597;47.588;9.642;2024-02-16T10:11:17;5.30;;;4.30;;
11086;SDS011;5597;47.588;9.642;2024-02-16T10:14:03;5.60;;;4.73;;
11086;SDS011;5597;47.588;9.642;2024-02-16T10:16:29;5.63;;;4.40;;
11086;SDS011;5597;47.588;9.642;2024-02-16T10:18:56;5.17;;;3.57;;
11086;SDS011;5597;47.588;9.642;2024-02-16T10:21:32;4.30;;;3.77;;
11086;SDS011;5597;47.588;9.642;2024-02-16T10:24:03;4.13;;;3.70;;
11086;SDS011;5597;47.588;9.642;2024-02-16T10:26:30;4.30;;;3.70;;
11086;SDS011;5597;47.588;9.642;2024-02-16T10:28:56;4.57;;;3.87;;
11086;SDS011;5597;47.588;9.642;2024-02-16T10:31:24;3.90;;;3.50;;
11086;SDS011;5597;47.588;9.642;2024-02-16T10:34:03;4.47;;;3.83;;
11086;SDS011;5597;47.588;9.642;2024-02-16T10:36:34;4.37;;;3.60;;
11086;SDS011;5597;47.588;9.642;2024-02-16T10:39:01;4.10;;;3.60;;
11086;SDS011;5597;47.588;9.642;2024-02-16T10:41:33;3.73;;;3.43;;
11086;SDS011;5597;47.588;9.642;2024-02-16T10:44:05;4.23;;;3.40;;
11086;SDS011;5597;47.588;9.642;2024-02-16T10:46:31;5.70;;;4.07;;
11086;SDS011;5597;47.588;9.642;2024-02-16T10:48:57;4.03;;;3.53;;
11086;SDS011;5597;47.588;9.642;2024-02-16T10:51:25;4.10;;;3.60;;
11086;SDS011;5597;47.588;9.642;2024-02-16T10:53:56;3.80;;;3.40;;
11086;SDS011;5597;47.588;9.642;2024-02-16T10:56:43;4.50;;;3.33;;
11086;SDS011;5597;47.588;9.642;2024-02-16T10:59:09;6.70;;;3.77;;
11086;SDS011;5597;47.588;9.642;2024-02-16T11:01:42;5.07;;;3.77;;
11086;SDS011;5597;47.588;9.642;2024-02-16T11:04:11;4.57;;;3.60;;
11086;SDS011;5597;47.588;9.642;2024-02-16T11:06:48;4.07;;;3.67;;
11086;SDS011;5597;47.588;9.642;2024-02-16T11:09:34;4.17;;;3.63;;
11086;SDS011;5597;47.588;9.642;2024-02-16T11:12:01;5.20;;;4.00;;
11086;SDS011;5597;47.588;9.642;2024-02-16T11:14:34;5.10;;;4.20;;
11086;SDS011;5597;47.588;9.642;2024-02-16T11:17:01;4.73;;;4.23;;
11086;SDS011;5597;47.588;9.642;2024-02-16T11:19:29;5.37;;;3.80;;
11086;SDS011;5597;47.588;9.642;2024-02-16T11:21:55;4.10;;;3.70;;
11086;SDS011;5597;47.588;9.642;2024-02-16T11:24:29;4.30;;;3.90;;
11086;SDS011;5597;47.588;9.642;2024-02-16T11:26:56;6.33;;;4.33;;
11086;SDS011;5597;47.588;9.642;2024-02-16T11:29:22;5.57;;;4.73;;
11086;SDS011;5597;47.588;9.642;2024-02-16T11:31:48;5.03;;;4.23;;
11086;SDS011;5597;47.588;9.642;2024-02-16T11:34:23;4.67;;;4.13;;
11086;SDS011;5597;47.588;9.642;2024-02-16T11:36:51;5.27;;;4.47;;
11086;SDS011;5597;47.588;9.642;2024-02-16T11:39:21;4.37;;;3.97;;
11086;SDS011;5597;47.588;9.642;2024-02-16T11:41:47;4.47;;;4.03;;
11086;SDS011;5597;47.588;9.642;2024-02-16T11:44:13;4.20;;;3.80;;
11086;SDS011;5597;47.588;9.642;2024-02-16T11:46:42;4.37;;;3.93;;
11086;SDS011;5597;47.588;9.642;2024-02-16T11:49:08;4.07;;;3.67;;
11086;SDS011;5597;47.588;9.642;2024-02-16T11:51:35;4.73;;;4.27;;
11086;SDS011;5597;47.588;9.642;2024-02-16T11:54:01;7.17;;;4.70;;
11086;SDS011;5597;47.588;9.642;2024-02-16T11:56:27;5.70;;;4.97;;
11086;SDS011;5597;47.588;9.642;2024-02-16T11:58:54;6.80;;;5.60;;
11086;SDS011;5597;47.588;9.642;2024-02-16T12:01:21;6.27;;;5.37;;
11086;SDS011;5597;47.588;9.642;2024-02-16T12:03:46;5.70;;;5.20;;
11086;SDS011;5597;47.588;9.642;2024-02-16T12:06:19;5.50;;;4.90;;
11086;SDS011;5597;47.588;9.642;2024-02-16T12:08:49;4.90;;;4.40;;
11086;SDS011;5597;47.588;9.642;2024-02-16T12:11:17;5.43;;;4.63;;
11086;SDS011;5597;47.588;9.642;2024-02-16T12:13:44;5.50;;;4.90;;
11086;SDS011;5597;47.588;9.642;2024-02-16T12:16:10;4.20;;;3.73;;
11086;SDS011;5597;47.588;9.642;2024-02-16T12:18:36;4.37;;;3.60;;
11086;SDS011;5597;47.588;9.642;2024-02-16T12:21:02;3.60;;;3.30;;
11086;SDS011;5597;47.588;9.642;2024-02-16T12:23:35;3.37;;;3.07;;
11086;SDS011;5597;47.588;9.642;2024-02-16T12:26:01;5.10;;;3.30;;
11086;SDS011;5597;47.588;9.642;2024-02-16T12:28:28;5.17;;;4.40;;
11086;SDS011;5597;47.588;9.642;2024-02-16T12:30:58;5.73;;;4.37;;
11086;SDS011;5597;47.588;9.642;2024-02-16T12:33:25;6.17;;;4.07;;
11086;SDS011;5597;47.588;9.642;2024-02-16T12:35:51;4.93;;;3.93;;
11086;SDS011;5597;47.588;9.642;2024-02-16T12:38:17;4.47;;;3.80;;
11086;SDS011;5597;47.588;9.642;2024-02-16T12:40:47;5.30;;;4.43;;
11086;SDS011;5597;47.588;9.642;2024-02-16T12:43:13;3.63;;;3.20;;
11086;SDS011;5597;47.588;9.642;2024-02-16T12:45:40;4.50;;;4.03;;
11086;SDS011;5597;47.588;9.642;2024-02-16T12:48:06;4.20;;;3.60;;
11086;SDS011;5597;47.588;9.642;2024-02-16T12:50:32;6.40;;;4.83;;
11086;SDS011;5597;47.588;9.642;2024-02-16T12:52:58;5.17;;;4.53;;
11086;SDS011;5597;47.588;9.642;2024-02-16T12:55:24;6.47;;;5.20;;
11086;SDS011;5597;47.588;9.642;2024-02-16T12:57:51;5.13;;;4.63;;
11086;SDS011;5597;47.588;9.642;2024-02-16T13:00:17;6.63;;;6.03;;
11086;SDS011;5597;47.588;9.642;2024-02-16T13:02:43;7.13;;;5.70;;
11086;SDS011;5597;47.588;9.642;2024-02-16T13:05:09;9.40;;;6.60;;
11086;SDS011;5597;47.588;9.642;2024-02-16T13:07:36;7.33;;;6.23;;
11086;SDS011;5597;47.588;9.642;2024-02-16T13:10:04;7.20;;;6.50;;
11086;SDS011;5597;47.588;9.642;2024-02-16T13:12:30;7.30;;;6.47;;
11086;SDS011;5597;47.588;9.642;2024-02-16T13:14:56;6.43;;;5.13;;
11086;SDS011;5597;47.588;9.642;2024-02-16T13:17:21;5.30;;;4.80;;
11086;SDS011;5597;47.588;9.642;2024-02-16T13:19:47;5.47;;;4.27;;
11086;SDS011;5597;47.588;9.642;2024-02-16T13:22:13;5.03;;;3.67;;
11086;SDS011;5597;47.588;9.642;2024-02-16T13:24:38;3.97;;;3.67;;
11086;SDS011;5597;47.588;9.642;2024-02-16T13:27:04;4.87;;;4.07;;
11086;SDS011;5597;47.588;9.642;2024-02-16T13:29:30;3.63;;;3.20;;
11086;SDS011;5597;47.588;9.642;2024-02-16T13:31:56;3.73;;;3.13;;
11086;SDS011;5597;47.588;9.642;2024-02-16T13:34:22;3.93;;;3.53;;
11086;SDS011;5597;47.588;9.642;2024-02-16T13:36:48;4.57;;;3.97;;
11086;SDS011;5597;47.588;9.642;2024-02-16T13:39:14;4.07;;;3.57;;
11086;SDS011;5597;47.588;9.642;2024-02-16T13:41:41;4.33;;;3.90;;
11086;SDS011;5597;47.588;9.642;2024-02-16T13:44:09;4.60;;;3.70;;
11086;SDS011;5597;47.588;9.642;2024-02-16T13:46:35;5.20;;;3.83;;
11086;SDS011;5597;47.588;9.642;2024-02-16T13:49:00;4.30;;;3.87;;
11086;SDS011;5597;47.588;9.642;2024-02-16T13:51:26;4.40;;;4.00;;
11086;SDS011;5597;47.588;9.642;2024-02-16T13:53:51;6.00;;;4.33;;
11086;SDS011;5597;47.588;9.642;2024-02-16T13:56:17;7.47;;;3.90;;
11086;SDS011;5597;47.588;9.642;2024-02-16T13:58:44;4.47;;;3.73;;
11086;SDS011;5597;47.588;9.642;2024-02-16T14:01:09;5.10;;;3.63;;
11086;SDS011;5597;47.588;9.642;2024-02-16T14:03:35;5.57;;;3.30;;
11086;SDS011;5597;47.588;9.642;2024-02-16T14:06:01;6.10;;;3.70;;
11086;SDS011;5597;47.588;9.642;2024-02-16T14:08:27;4.63;;;3.37;;
11086;SDS011;5597;47.588;9.642;2024-02-16T14:10:53;4.60;;;3.40;;
11086;SDS011;5597;47.588;9.642;2024-02-16T14:13:19;3.80;;;3.03;;
11086;SDS011;5597;47.588;9.642;2024-02-16T14:15:46;3.27;;;2.93;;
11086;SDS011;5597;47.588;9.642;2024-02-16T14:18:11;3.93;;;2.97;;
11086;SDS011;5597;47.588;9.642;2024-02-16T14:20:37;3.23;;;2.90;;
11086;SDS011;5597;47.588;9.642;2024-02-16T14:23:03;3.10;;;2.53;;
11086;SDS011;5597;47.588;9.642;2024-02-16T14:25:28;3.77;;;2.50;;
11086;SDS011;5597;47.588;9.642;2024-02-16T14:27:54;3.83;;;2.60;;
11086;SDS011;5597;47.588;9.642;2024-02-16T14:30:20;4.33;;;2.63;;
11086;SDS011;5597;47.588;9.642;2024-02-16T14:32:46;3.17;;;2.60;;
11086;SDS011;5597;47.588;9.642;2024-02-16T14:35:11;3.20;;;2.50;;
11086;SDS011;5597;47.588;9.642;2024-02-16T14:37:37;3.83;;;2.73;;
11086;SDS011;5597;47.588;9.642;2024-02-16T14:40:04;2.53;;;2.20;;
11086;SDS011;5597;47.588;9.642;2024-02-16T14:42:34;3.23;;;2.57;;
11086;SDS011;5597;47.588;9.642;2024-02-16T14:45:01;4.67;;;3.17;;
11086;SDS011;5597;47.588;9.642;2024-02-16T14:47:27;4.07;;;3.07;;
11086;SDS011;5597;47.588;9.642;2024-02-16T14:49:53;4.23;;;3.17;;
11086;SDS011;5597;47.588;9.642;2024-02-16T14:52:19;4.27;;;2.90;;
11086;SDS011;5597;47.588;9.642;2024-02-16T14:54:45;4.90;;;3.07;;
11086;SDS011;5597;47.588;9.642;2024-02-16T14:57:11;3.50;;;3.00;;